Time;durP1;ratioP1;P1;durP2;ratioP2;P2;SDS_P1;SDS_P2;PMS_P1;PMS_P2;Temp;Humidity;BMP_temperature;BMP_pressure;BME280_temperature;BME280_humidity;BME280_pressure;Samples;Min_cycle;Max_cycle;Signal;HPM_P1;HPM_P2
2021/05/20 00:04:56;;;;;;;13.63;10.13;;;;;;;;;;13103504;22;20283;-88
2021/05/20 00:09:59;;;;;;;14.10;10.20;;;;;;;;;;13103821;22;20165;-86
2021/05/20 00:15:01;;;;;;;14.60;10.60;;;;;;;;;;13081430;22;20828;-86
2021/05/20 00:20:05;;;;;;;14.23;10.17;;;;;;;;;;13099070;22;20770;-86
2021/05/20 00:25:09;;;;;;;13.97;10.57;;;;;;;;;;13081238;22;20689;-89
2021/05/20 00:30:12;;;;;;;18.93;10.70;;;;;;;;;;13100608;22;20201;-88
2021/05/20 00:35:14;;;;;;;13.67;10.57;;;;;;;;;;13099942;22;20599;-87
2021/05/20 00:40:18;;;;;;;16.73;11.10;;;;;;;;;;13100441;22;20232;-85
2021/05/20 00:45:20;;;;;;;15.70;11.43;;;;;;;;;;13101963;22;20203;-88
2021/05/20 00:50:23;;;;;;;13.63;10.03;;;;;;;;;;13097311;22;20689;-87
2021/05/20 00:55:31;;;;;;;16.67;11.67;;;;;;;;;;13081304;22;20179;-86
2021/05/20 01:00:34;;;;;;;15.07;11.93;;;;;;;;;;13099512;22;20289;-87
2021/05/20 01:05:37;;;;;;;16.30;12.33;;;;;;;;;;13099871;22;20205;-87
2021/05/20 01:10:40;;;;;;;15.53;11.60;;;;;;;;;;13100585;22;20211;-86
2021/05/20 01:15:43;;;;;;;15.60;12.00;;;;;;;;;;13101638;22;20172;-90
2021/05/20 01:20:46;;;;;;;17.10;12.23;;;;;;;;;;13098902;22;20224;-88
2021/05/20 01:25:50;;;;;;;16.70;12.50;;;;;;;;;;13084341;22;20177;-89
2021/05/20 01:30:52;;;;;;;19.47;13.30;;;;;;;;;;13100827;22;20272;-89
2021/05/20 01:35:56;;;;;;;20.00;14.70;;;;;;;;;;13101190;22;20234;-89
2021/05/20 01:41:00;;;;;;;20.83;14.77;;;;;;;;;;13100098;22;20599;-87
2021/05/20 01:46:04;;;;;;;21.90;14.53;;;;;;;;;;13098508;22;20173;-88
2021/05/20 01:51:09;;;;;;;19.37;14.57;;;;;;;;;;13100863;22;20169;-88
2021/05/20 01:56:14;;;;;;;17.97;13.97;;;;;;;;;;13103817;22;20218;-88
2021/05/20 02:01:16;;;;;;;17.97;14.40;;;;;;;;;;13098441;22;20254;-87
2021/05/20 02:06:20;;;;;;;20.67;14.87;;;;;;;;;;13080905;22;20315;-87
2021/05/20 02:11:22;;;;;;;20.07;15.10;;;;;;;;;;13080248;22;20760;-89
2021/05/20 02:16:24;;;;;;;19.40;14.67;;;;;;;;;;13100428;22;20177;-88
2021/05/20 02:21:28;;;;;;;21.27;14.30;;;;;;;;;;13099778;22;20201;-87
2021/05/20 02:26:30;;;;;;;18.90;13.97;;;;;;;;;;13099989;22;20235;-88
2021/05/20 02:31:32;;;;;;;17.67;12.50;;;;;;;;;;13098248;22;20296;-88
2021/05/20 02:36:36;;;;;;;18.57;13.37;;;;;;;;;;13100825;22;20272;-88
2021/05/20 02:41:38;;;;;;;20.37;14.03;;;;;;;;;;13080527;22;20205;-89
2021/05/20 02:46:41;;;;;;;18.43;13.53;;;;;;;;;;13101369;22;20252;-89
2021/05/20 02:51:44;;;;;;;18.83;14.30;;;;;;;;;;13084779;22;20211;-86
2021/05/20 02:56:47;;;;;;;19.53;13.97;;;;;;;;;;13082793;22;20216;-87
2021/05/20 03:01:50;;;;;;;18.10;13.90;;;;;;;;;;13080712;22;20734;-86
2021/05/20 03:06:53;;;;;;;19.90;14.30;;;;;;;;;;13081504;22;20188;-86
2021/05/20 03:11:57;;;;;;;20.33;14.53;;;;;;;;;;13102958;22;20205;-88
2021/05/20 03:17:01;;;;;;;22.60;15.47;;;;;;;;;;13078515;22;20713;-86
2021/05/20 03:22:04;;;;;;;20.90;15.33;;;;;;;;;;13104250;22;20621;-89
2021/05/20 03:27:07;;;;;;;19.83;15.00;;;;;;;;;;13101336;22;20179;-88
2021/05/20 03:32:09;;;;;;;21.13;15.77;;;;;;;;;;13097643;22;20173;-88
2021/05/20 03:37:13;;;;;;;22.70;15.90;;;;;;;;;;13101355;22;20173;-87
2021/05/20 03:42:15;;;;;;;22.63;16.50;;;;;;;;;;13103072;22;20197;-87
2021/05/20 03:47:18;;;;;;;23.60;16.57;;;;;;;;;;13099636;22;20173;-89
2021/05/20 03:52:21;;;;;;;23.83;16.87;;;;;;;;;;13081562;22;20711;-87
2021/05/20 03:57:24;;;;;;;25.03;17.37;;;;;;;;;;13100729;22;20653;-86
2021/05/20 04:02:28;;;;;;;24.73;17.53;;;;;;;;;;13101464;22;20319;-88
2021/05/20 04:07:31;;;;;;;26.20;18.33;;;;;;;;;;13101949;22;20208;-87
2021/05/20 04:12:34;;;;;;;28.60;18.97;;;;;;;;;;13098534;22;20235;-88
2021/05/20 04:17:36;;;;;;;30.67;19.73;;;;;;;;;;13098785;22;20728;-87
2021/05/20 04:22:39;;;;;;;32.03;20.00;;;;;;;;;;13099405;22;20326;-87
2021/05/20 04:27:42;;;;;;;32.27;20.27;;;;;;;;;;13100935;22;20205;-89
2021/05/20 04:32:44;;;;;;;30.80;19.33;;;;;;;;;;13097430;22;20201;-88
2021/05/20 04:37:47;;;;;;;36.57;21.23;;;;;;;;;;13102459;22;20173;-89
2021/05/20 04:42:54;;;;;;;35.80;21.93;;;;;;;;;;13098274;22;20283;-88
2021/05/20 04:47:56;;;;;;;40.27;22.70;;;;;;;;;;13099607;22;20264;-88
2021/05/20 04:52:59;;;;;;;37.03;22.07;;;;;;;;;;13099937;22;20573;-88
2021/05/20 04:58:02;;;;;;;43.33;23.07;;;;;;;;;;13100068;22;20174;-90
2021/05/20 05:03:06;;;;;;;40.77;22.53;;;;;;;;;;13097121;22;20204;-86
2021/05/20 05:08:09;;;;;;;37.27;20.60;;;;;;;;;;13080258;22;20202;-89
2021/05/20 05:13:11;;;;;;;36.70;20.47;;;;;;;;;;13079843;22;20556;-89
2021/05/20 05:18:14;;;;;;;36.07;19.20;;;;;;;;;;13096054;22;20197;-86
2021/05/20 05:23:17;;;;;;;36.90;20.23;;;;;;;;;;13084506;22;20458;-88
2021/05/20 05:28:20;;;;;;;32.00;18.40;;;;;;;;;;13104150;22;20184;-88
2021/05/20 05:33:22;;;;;;;35.90;19.20;;;;;;;;;;13099118;22;20176;-91
2021/05/20 05:38:26;;;;;;;36.97;19.70;;;;;;;;;;13118716;22;20373;-91
2021/05/20 05:43:29;;;;;;;38.60;20.10;;;;;;;;;;13095878;22;20228;-90
2021/05/20 05:48:31;;;;;;;41.37;21.43;;;;;;;;;;13122673;22;20181;-91
2021/05/20 05:53:36;;;;;;;43.00;21.80;;;;;;;;;;13104692;22;20200;-91
2021/05/20 05:58:39;;;;;;;38.53;20.03;;;;;;;;;;13087370;22;20183;-90
2021/05/20 06:03:43;;;;;;;41.93;21.27;;;;;;;;;;13106106;22;20212;-88
2021/05/20 06:08:48;;;;;;;40.47;21.03;;;;;;;;;;13095911;22;20238;-83
2021/05/20 06:13:50;;;;;;;42.60;21.37;;;;;;;;;;13096875;22;20176;-82
2021/05/20 06:18:53;;;;;;;38.73;21.00;;;;;;;;;;13093056;22;20266;-86
2021/05/20 06:23:57;;;;;;;36.83;20.63;;;;;;;;;;13099017;22;20208;-84
2021/05/20 06:28:59;;;;;;;33.93;20.20;;;;;;;;;;13093033;22;20169;-85
2021/05/20 06:34:02;;;;;;;39.17;22.27;;;;;;;;;;13092189;22;20702;-81
2021/05/20 06:39:05;;;;;;;44.17;25.27;;;;;;;;;;13070357;22;20173;-81
2021/05/20 06:44:08;;;;;;;39.63;23.03;;;;;;;;;;13073443;22;20208;-83
2021/05/20 06:49:10;;;;;;;37.37;21.13;;;;;;;;;;13089749;22;20176;-84
2021/05/20 06:54:15;;;;;;;40.53;21.50;;;;;;;;;;13094886;22;20661;-83
2021/05/20 07:04:37;;;;;;;34.80;20.17;;;;;;;;;;13093393;22;20689;-83
2021/05/20 07:09:41;;;;;;;31.90;18.67;;;;;;;;;;13093636;22;20168;-82
2021/05/20 07:14:44;;;;;;;31.57;19.03;;;;;;;;;;13095435;22;20192;-84
2021/05/20 07:19:48;;;;;;;31.93;19.17;;;;;;;;;;13067337;22;20229;-84
2021/05/20 07:24:51;;;;;;;32.33;18.87;;;;;;;;;;13096255;22;20500;-83
2021/05/20 07:29:54;;;;;;;32.23;20.47;;;;;;;;;;13099100;22;20227;-82
2021/05/20 07:34:57;;;;;;;36.43;21.57;;;;;;;;;;13076286;22;20196;-81
2021/05/20 07:40:09;;;;;;;36.07;23.07;;;;;;;;;;13096935;22;20435;-81
2021/05/20 07:45:13;;;;;;;36.07;22.73;;;;;;;;;;13096648;22;20173;-81
2021/05/20 07:50:19;;;;;;;40.20;23.77;;;;;;;;;;13093884;22;20252;-80
2021/05/20 07:55:24;;;;;;;35.80;21.93;;;;;;;;;;13099202;22;20587;-79
2021/05/20 08:00:29;;;;;;;37.10;22.47;;;;;;;;;;13095764;22;21024;-80
2021/05/20 08:05:36;;;;;;;39.67;22.53;;;;;;;;;;13095417;22;20220;-80
2021/05/20 08:10:47;;;;;;;35.17;20.60;;;;;;;;;;13096585;22;20987;-81
2021/05/20 08:15:50;;;;;;;37.37;21.43;;;;;;;;;;13097209;22;20331;-82
2021/05/20 08:20:55;;;;;;;35.97;22.03;;;;;;;;;;13096615;22;20201;-81
2021/05/20 08:26:01;;;;;;;45.63;25.37;;;;;;;;;;13097508;22;21054;-79
2021/05/20 08:31:05;;;;;;;39.20;24.30;;;;;;;;;;13096452;22;20173;-83
2021/05/20 08:36:10;;;;;;;36.90;24.67;;;;;;;;;;13096809;22;20690;-80
2021/05/20 08:41:17;;;;;;;36.17;24.40;;;;;;;;;;13099469;22;20575;-79
2021/05/20 08:46:23;;;;;;;28.07;20.47;;;;;;;;;;13096166;22;20582;-79
2021/05/20 08:51:28;;;;;;;25.43;17.20;;;;;;;;;;13099507;22;20255;-81
2021/05/20 08:56:31;;;;;;;25.30;17.50;;;;;;;;;;13098622;22;20529;-80
2021/05/20 09:01:35;;;;;;;19.83;14.97;;;;;;;;;;13095031;22;20279;-80
2021/05/20 09:06:39;;;;;;;21.20;14.83;;;;;;;;;;13086057;22;20691;-80
2021/05/20 09:11:47;;;;;;;19.30;14.67;;;;;;;;;;13098281;22;20173;-80
2021/05/20 09:16:50;;;;;;;18.67;13.03;;;;;;;;;;13095550;22;20279;-80
2021/05/20 09:22:10;;;;;;;15.33;11.40;;;;;;;;;;13079704;22;20551;-80
2021/05/20 09:27:32;;;;;;;15.90;9.97;;;;;;;;;;13097308;22;20278;-80
2021/05/20 09:32:35;;;;;;;13.93;9.23;;;;;;;;;;13096280;22;20284;-80
2021/05/20 09:37:48;;;;;;;12.13;8.53;;;;;;;;;;13098465;22;20206;-81
2021/05/20 09:42:51;;;;;;;11.27;7.43;;;;;;;;;;13098107;22;20228;-81
2021/05/20 09:48:03;;;;;;;12.77;8.13;;;;;;;;;;13095361;22;20353;-80
2021/05/20 09:53:09;;;;;;;14.03;9.03;;;;;;;;;;13099814;22;20177;-80
2021/05/20 09:58:13;;;;;;;17.43;10.13;;;;;;;;;;13096990;22;20690;-80
2021/05/20 10:03:17;;;;;;;16.40;10.40;;;;;;;;;;13095273;22;20236;-80
2021/05/20 10:08:20;;;;;;;11.90;8.50;;;;;;;;;;13098275;22;20180;-79
2021/05/20 10:13:24;;;;;;;11.83;7.90;;;;;;;;;;13099226;22;20521;-80
2021/05/20 10:18:28;;;;;;;12.33;8.23;;;;;;;;;;13094259;22;20192;-80
2021/05/20 10:23:32;;;;;;;11.47;8.10;;;;;;;;;;13099043;22;20230;-82
2021/05/20 10:28:36;;;;;;;14.37;10.13;;;;;;;;;;13096988;22;20722;-81
2021/05/20 10:33:39;;;;;;;10.93;7.80;;;;;;;;;;13096706;22;20556;-80
2021/05/20 10:38:41;;;;;;;9.33;6.83;;;;;;;;;;13097528;22;20169;-81
2021/05/20 10:43:45;;;;;;;11.67;7.93;;;;;;;;;;13098406;22;20204;-80
2021/05/20 10:48:49;;;;;;;12.43;8.77;;;;;;;;;;13096093;22;20207;-79
2021/05/20 10:54:06;;;;;;;10.07;6.70;;;;;;;;;;13076265;22;20173;-80
2021/05/20 10:59:31;;;;;;;9.13;5.97;;;;;;;;;;13097284;22;20408;-78
2021/05/20 11:04:34;;;;;;;13.27;8.20;;;;;;;;;;13099899;22;20851;-78
2021/05/20 11:09:44;;;;;;;9.00;6.10;;;;;;;;;;13102955;22;20366;-79
2021/05/20 11:14:48;;;;;;;13.77;8.43;;;;;;;;;;13102921;22;20656;-80
2021/05/20 11:20:16;;;;;;;12.93;8.43;;;;;;;;;;13098718;22;20284;-80
2021/05/20 11:25:19;;;;;;;9.50;6.57;;;;;;;;;;13080778;22;20177;-80
2021/05/20 11:30:22;;;;;;;9.60;6.00;;;;;;;;;;13099572;22;20169;-81
2021/05/20 11:35:35;;;;;;;8.40;5.60;;;;;;;;;;13099827;22;20179;-81
2021/05/20 11:40:37;;;;;;;9.97;6.33;;;;;;;;;;13101270;22;20216;-81
2021/05/20 11:45:41;;;;;;;10.43;6.40;;;;;;;;;;13078945;22;20197;-81
2021/05/20 11:50:49;;;;;;;8.33;5.00;;;;;;;;;;13098289;22;20173;-80
2021/05/20 11:55:52;;;;;;;9.43;6.00;;;;;;;;;;13103426;22;20169;-81
2021/05/20 12:01:01;;;;;;;14.10;8.00;;;;;;;;;;13076758;22;20280;-81
2021/05/20 12:06:04;;;;;;;12.73;6.97;;;;;;;;;;13100531;22;20592;-80
2021/05/20 12:11:07;;;;;;;14.10;8.03;;;;;;;;;;13100012;22;20181;-81
2021/05/20 12:16:10;;;;;;;9.97;6.40;;;;;;;;;;13097495;22;20208;-80
2021/05/20 12:21:13;;;;;;;10.17;7.27;;;;;;;;;;13098373;22;20205;-80
2021/05/20 12:26:23;;;;;;;13.80;7.63;;;;;;;;;;13099718;22;20700;-80
2021/05/20 12:31:26;;;;;;;11.40;7.47;;;;;;;;;;13095263;22;20457;-80
2021/05/20 12:36:30;;;;;;;7.90;6.50;;;;;;;;;;13099711;22;20231;-82
2021/05/20 12:41:36;;;;;;;8.30;6.00;;;;;;;;;;13098555;22;20228;-80
2021/05/20 12:46:39;;;;;;;8.10;5.43;;;;;;;;;;13075670;22;20515;-81
2021/05/20 12:51:42;;;;;;;6.97;4.90;;;;;;;;;;13098025;22;20173;-80
2021/05/20 12:56:45;;;;;;;6.43;4.30;;;;;;;;;;13098263;22;20220;-81
2021/05/20 13:01:50;;;;;;;5.80;3.93;;;;;;;;;;13094161;22;20770;-80
2021/05/20 13:06:57;;;;;;;5.97;3.23;;;;;;;;;;13100194;22;20189;-80
2021/05/20 13:12:01;;;;;;;5.27;3.40;;;;;;;;;;13097583;22;20169;-80
2021/05/20 13:17:23;;;;;;;4.57;2.50;;;;;;;;;;13096987;22;20720;-82
2021/05/20 13:22:28;;;;;;;3.70;2.83;;;;;;;;;;13097818;22;20287;-80
2021/05/20 13:27:50;;;;;;;2.97;2.27;;;;;;;;;;13099757;22;20618;-82
2021/05/20 13:32:55;;;;;;;6.53;2.60;;;;;;;;;;13095030;22;20280;-79
2021/05/20 13:37:58;;;;;;;2.93;2.07;;;;;;;;;;13083974;22;20252;-80
2021/05/20 13:43:01;;;;;;;3.97;2.40;;;;;;;;;;13096953;22;20258;-79
2021/05/20 13:48:05;;;;;;;3.23;2.13;;;;;;;;;;13095654;22;20173;-80
2021/05/20 13:53:07;;;;;;;3.93;2.27;;;;;;;;;;13098234;22;20630;-82
2021/05/20 13:58:11;;;;;;;3.07;1.80;;;;;;;;;;13096376;22;20169;-80
2021/05/20 14:03:17;;;;;;;3.53;2.00;;;;;;;;;;13097281;22;20587;-79
2021/05/20 14:08:20;;;;;;;2.27;1.60;;;;;;;;;;13096872;22;20215;-80
2021/05/20 14:13:23;;;;;;;3.10;2.00;;;;;;;;;;13100581;22;20177;-80
2021/05/20 14:18:26;;;;;;;6.80;2.70;;;;;;;;;;13092495;22;20248;-80
2021/05/20 14:23:29;;;;;;;3.53;2.10;;;;;;;;;;13099005;22;20311;-80
2021/05/20 14:28:33;;;;;;;4.17;2.53;;;;;;;;;;13095836;22;20203;-81
2021/05/20 14:33:36;;;;;;;3.60;2.30;;;;;;;;;;13073295;22;20815;-80
2021/05/20 14:38:39;;;;;;;3.40;2.33;;;;;;;;;;13102715;22;20580;-79
2021/05/20 14:43:41;;;;;;;4.83;2.43;;;;;;;;;;13103545;22;20397;-80
2021/05/20 14:48:45;;;;;;;3.67;2.20;;;;;;;;;;13099394;22;20264;-80
2021/05/20 14:53:53;;;;;;;2.27;2.00;;;;;;;;;;13102677;22;20235;-81
2021/05/20 15:09:52;;;;;;;2.40;1.63;;;;;;;;;;13079678;22;20227;-79
2021/05/20 15:14:57;;;;;;;2.40;1.50;;;;;;;;;;13100927;22;20175;-80
2021/05/20 15:20:01;;;;;;;2.13;1.80;;;;;;;;;;13097551;22;20188;-80
2021/05/20 15:25:25;;;;;;;2.87;1.63;;;;;;;;;;13102478;22;20283;-80
2021/05/20 15:30:28;;;;;;;4.97;2.00;;;;;;;;;;13100423;22;20497;-81
2021/05/20 15:35:32;;;;;;;3.03;1.73;;;;;;;;;;13100265;22;20177;-81
2021/05/20 15:40:35;;;;;;;3.17;1.90;;;;;;;;;;13078313;22;20544;-81
2021/05/20 15:45:37;;;;;;;3.00;1.90;;;;;;;;;;13101907;22;20204;-81
2021/05/20 15:50:40;;;;;;;2.43;1.77;;;;;;;;;;13091995;22;20178;-81
2021/05/20 15:55:43;;;;;;;3.60;1.90;;;;;;;;;;13083229;22;20173;-82
2021/05/20 16:00:45;;;;;;;3.10;2.10;;;;;;;;;;13099437;22;20225;-82
2021/05/20 16:05:49;;;;;;;4.10;2.23;;;;;;;;;;13100974;22;20213;-80
2021/05/20 16:11:00;;;;;;;3.70;2.03;;;;;;;;;;13100393;22;20252;-81
2021/05/20 16:16:04;;;;;;;3.93;2.10;;;;;;;;;;13099201;22;20268;-80
2021/05/20 16:21:07;;;;;;;3.70;1.93;;;;;;;;;;13076546;22;20191;-80
2021/05/20 16:26:40;;;;;;;2.63;1.90;;;;;;;;;;13079588;22;20708;-82
2021/05/20 16:37:05;;;;;;;3.13;1.60;;;;;;;;;;13097654;22;20192;-79
2021/05/20 16:42:07;;;;;;;4.30;1.60;;;;;;;;;;13100604;22;20211;-81
2021/05/20 16:47:09;;;;;;;4.60;1.80;;;;;;;;;;13074698;22;20257;-78
2021/05/20 16:52:12;;;;;;;5.17;1.73;;;;;;;;;;13070090;22;20487;-78
2021/05/20 16:57:18;;;;;;;4.43;1.63;;;;;;;;;;13089147;22;20243;-78
2021/05/20 17:02:20;;;;;;;3.40;1.77;;;;;;;;;;13092649;22;20585;-76
2021/05/20 17:07:25;;;;;;;4.37;1.60;;;;;;;;;;13096973;22;20184;-78
2021/05/20 17:12:28;;;;;;;3.90;1.80;;;;;;;;;;13093995;22;20677;-82
2021/05/20 17:17:31;;;;;;;6.63;1.73;;;;;;;;;;13088926;22;20204;-84
2021/05/20 17:22:34;;;;;;;3.40;1.83;;;;;;;;;;13095487;22;20240;-83
2021/05/20 17:27:37;;;;;;;11.20;1.70;;;;;;;;;;13091127;22;20193;-85
2021/05/20 17:32:40;;;;;;;4.33;1.83;;;;;;;;;;13079625;22;20181;-85
2021/05/20 17:37:43;;;;;;;5.67;1.40;;;;;;;;;;13093885;22;20176;-87
2021/05/20 17:42:45;;;;;;;2.93;1.80;;;;;;;;;;13094018;22;20204;-86
2021/05/20 17:47:50;;;;;;;3.17;1.47;;;;;;;;;;13090709;22;20661;-86
2021/05/20 17:52:53;;;;;;;3.57;1.80;;;;;;;;;;13095266;22;20522;-86
2021/05/20 17:57:55;;;;;;;3.33;1.53;;;;;;;;;;13074600;22;20680;-85
2021/05/20 18:02:59;;;;;;;4.37;1.60;;;;;;;;;;13073666;22;20213;-79
2021/05/20 18:08:08;;;;;;;3.67;1.60;;;;;;;;;;13077494;22;20187;-88
2021/05/20 18:13:15;;;;;;;3.97;1.80;;;;;;;;;;13094876;22;20672;-88
2021/05/20 18:18:25;;;;;;;4.27;1.60;;;;;;;;;;13095289;22;20202;-90
2021/05/20 18:23:28;;;;;;;7.23;2.03;;;;;;;;;;13095215;22;20572;-88
2021/05/20 18:28:34;;;;;;;3.47;1.60;;;;;;;;;;13097209;22;20205;-89
2021/05/20 18:33:37;;;;;;;4.20;1.67;;;;;;;;;;13094664;22;20256;-89
2021/05/20 18:38:40;;;;;;;4.10;1.97;;;;;;;;;;13098263;22;20724;-88
2021/05/20 18:43:43;;;;;;;4.43;1.60;;;;;;;;;;13096403;22;20211;-88
2021/05/20 18:48:45;;;;;;;5.53;2.20;;;;;;;;;;13096133;22;20223;-88
2021/05/20 18:53:49;;;;;;;3.17;1.57;;;;;;;;;;13096472;22;20713;-88
2021/05/20 18:58:51;;;;;;;5.30;1.90;;;;;;;;;;13078137;22;20179;-87
2021/05/20 19:03:57;;;;;;;4.90;2.00;;;;;;;;;;13071704;22;20215;-89
2021/05/20 19:09:00;;;;;;;4.77;1.83;;;;;;;;;;13098523;22;20506;-89
2021/05/20 19:14:03;;;;;;;5.30;2.23;;;;;;;;;;13094501;22;20179;-87
2021/05/20 19:19:14;;;;;;;4.33;1.80;;;;;;;;;;13093953;22;20443;-85
2021/05/20 19:24:17;;;;;;;6.77;1.70;;;;;;;;;;13098649;22;20189;-86
2021/05/20 19:29:27;;;;;;;5.47;1.60;;;;;;;;;;13098893;22;20618;-87
2021/05/20 19:34:30;;;;;;;3.03;1.50;;;;;;;;;;13095373;22;20516;-86
2021/05/20 19:39:33;;;;;;;2.73;1.50;;;;;;;;;;13099382;22;20231;-87
2021/05/20 19:44:36;;;;;;;4.67;1.60;;;;;;;;;;13103163;22;20203;-87
2021/05/20 19:49:43;;;;;;;3.67;1.60;;;;;;;;;;13099840;22;20174;-88
2021/05/20 19:55:05;;;;;;;5.13;1.63;;;;;;;;;;13096655;22;20169;-81
2021/05/20 20:00:18;;;;;;;4.40;1.60;;;;;;;;;;13099684;22;20177;-88
2021/05/20 20:05:27;;;;;;;4.27;1.50;;;;;;;;;;13078687;22;20247;-88
2021/05/20 20:10:30;;;;;;;2.77;1.50;;;;;;;;;;13108469;22;20196;-89
2021/05/20 20:15:33;;;;;;;2.70;1.40;;;;;;;;;;13109993;22;20169;-90
2021/05/20 20:20:38;;;;;;;4.80;1.40;;;;;;;;;;13101079;22;20527;-90
2021/05/20 20:25:54;;;;;;;4.10;1.70;;;;;;;;;;13107589;22;20467;-89
2021/05/20 20:30:56;;;;;;;6.70;1.50;;;;;;;;;;13117578;22;20234;-90
2021/05/20 20:36:17;;;;;;;4.80;1.63;;;;;;;;;;13109235;22;20176;-91
2021/05/20 20:41:24;;;;;;;3.17;1.23;;;;;;;;;;13106408;22;20211;-88
2021/05/20 20:46:29;;;;;;;4.83;1.60;;;;;;;;;;13108991;22;20603;-91
2021/05/20 20:51:31;;;;;;;3.93;1.60;;;;;;;;;;13107886;22;20213;-90
2021/05/20 20:56:36;;;;;;;3.33;1.70;;;;;;;;;;13086893;22;20188;-90
2021/05/20 21:01:40;;;;;;;2.70;1.70;;;;;;;;;;13088885;22;20193;-90
